Time;durP1;ratioP1;P1;durP2;ratioP2;P2;SDS_P1;SDS_P2;PMS_P1;PMS_P2;Temp;Humidity;BMP_temperature;BMP_pressure;BME280_temperature;BME280_humidity;BME280_pressure;Samples;Min_cycle;Max_cycle;Signal;HPM_P1;HPM_P2
2022/11/03 00:01:53;;;;;;;1.90;1.50;;;;;;;;;;5007199;28;20173;-57
2022/11/03 00:04:20;;;;;;;2.43;1.47;;;;;;;;;;5012045;28;20567;-57
2022/11/03 00:06:47;;;;;;;2.00;1.50;;;;;;;;;;5008190;28;20514;-58
2022/11/03 00:09:13;;;;;;;2.53;1.50;;;;;;;;;;5006787;28;20227;-58
2022/11/03 00:11:40;;;;;;;2.40;1.53;;;;;;;;;;5010952;28;20184;-58
2022/11/03 00:14:06;;;;;;;2.47;1.60;;;;;;;;;;5007526;28;20184;-58
2022/11/03 00:16:32;;;;;;;1.83;1.40;;;;;;;;;;5006535;28;20176;-58
2022/11/03 00:18:57;;;;;;;2.33;1.40;;;;;;;;;;5009819;28;20574;-59
2022/11/03 00:21:22;;;;;;;1.50;1.20;;;;;;;;;;4998516;28;20208;-58
2022/11/03 00:23:48;;;;;;;2.23;1.37;;;;;;;;;;5010473;28;20196;-58
2022/11/03 00:26:17;;;;;;;1.87;1.30;;;;;;;;;;5009687;28;20238;-58
2022/11/03 00:28:45;;;;;;;1.50;1.30;;;;;;;;;;5007466;28;20739;-58
2022/11/03 00:31:13;;;;;;;2.00;1.50;;;;;;;;;;5007345;28;20192;-58
2022/11/03 00:33:40;;;;;;;1.70;1.40;;;;;;;;;;5012001;28;20210;-57
2022/11/03 00:36:06;;;;;;;3.77;1.60;;;;;;;;;;5011192;28;20188;-58
2022/11/03 00:38:32;;;;;;;2.00;1.40;;;;;;;;;;5010444;28;20290;-58
2022/11/03 00:40:59;;;;;;;2.10;1.50;;;;;;;;;;5010414;28;20705;-58
2022/11/03 00:43:25;;;;;;;1.90;1.30;;;;;;;;;;5011661;28;20651;-57
2022/11/03 00:45:51;;;;;;;1.77;1.40;;;;;;;;;;5010475;28;20214;-58
2022/11/03 00:48:28;;;;;;;2.33;1.63;;;;;;;;;;5010496;28;20590;-59
2022/11/03 00:51:13;;;;;;;2.07;1.50;;;;;;;;;;5009556;28;20222;-58
2022/11/03 00:53:46;;;;;;;1.80;1.30;;;;;;;;;;5010352;28;20251;-58
2022/11/03 00:56:14;;;;;;;1.97;1.30;;;;;;;;;;5006347;28;20180;-58
2022/11/03 00:58:41;;;;;;;2.10;1.50;;;;;;;;;;5009903;28;20215;-58
2022/11/03 01:01:11;;;;;;;1.47;1.30;;;;;;;;;;5010825;28;20263;-58
2022/11/03 01:03:38;;;;;;;2.27;1.50;;;;;;;;;;5009779;28;20184;-58
2022/11/03 01:08:55;;;;;;;2.13;1.30;;;;;;;;;;5010426;28;20742;-58
2022/11/03 01:14:07;;;;;;;1.80;1.40;;;;;;;;;;5001941;28;20176;-57
2022/11/03 01:16:32;;;;;;;2.20;1.40;;;;;;;;;;5010696;28;20178;-58
2022/11/03 01:18:57;;;;;;;2.27;1.37;;;;;;;;;;5009973;28;20200;-58
2022/11/03 01:21:23;;;;;;;2.37;1.27;;;;;;;;;;5009223;28;20267;-58
2022/11/03 01:23:48;;;;;;;1.73;1.40;;;;;;;;;;5007437;28;20263;-58
2022/11/03 01:26:14;;;;;;;1.53;1.23;;;;;;;;;;5010391;28;20656;-58
2022/11/03 01:28:41;;;;;;;1.77;1.10;;;;;;;;;;5008674;28;20239;-59
2022/11/03 01:31:09;;;;;;;2.37;1.33;;;;;;;;;;5011970;28;20234;-58
2022/11/03 01:33:34;;;;;;;1.87;1.43;;;;;;;;;;5009392;28;20287;-59
2022/11/03 01:36:00;;;;;;;1.67;1.40;;;;;;;;;;5010477;28;20712;-58
2022/11/03 01:38:25;;;;;;;2.13;1.30;;;;;;;;;;5011272;28;20691;-58
2022/11/03 01:40:51;;;;;;;1.90;1.37;;;;;;;;;;5009039;28;20184;-58
2022/11/03 01:43:18;;;;;;;2.57;1.40;;;;;;;;;;5009539;28;20184;-58
2022/11/03 01:45:46;;;;;;;2.20;1.47;;;;;;;;;;5010298;28;20258;-59
2022/11/03 01:48:11;;;;;;;2.37;1.47;;;;;;;;;;5005930;28;20263;-59
2022/11/03 01:50:37;;;;;;;2.17;1.30;;;;;;;;;;5057379;23;20306;-56
2022/11/03 01:53:03;;;;;;;3.10;1.30;;;;;;;;;;5034645;28;20183;-60
2022/11/03 01:55:31;;;;;;;2.57;1.60;;;;;;;;;;5034094;28;20179;-58
2022/11/03 01:58:04;;;;;;;1.87;1.40;;;;;;;;;;5034016;28;20262;-59
2022/11/03 02:00:29;;;;;;;1.47;1.30;;;;;;;;;;5045500;28;20273;-60
2022/11/03 02:02:55;;;;;;;3.13;1.73;;;;;;;;;;5045726;28;20195;-58
2022/11/03 02:05:21;;;;;;;2.07;1.20;;;;;;;;;;5046306;28;20222;-59
2022/11/03 02:08:00;;;;;;;1.93;1.40;;;;;;;;;;5025632;28;20201;-58
2022/11/03 02:10:25;;;;;;;2.13;1.30;;;;;;;;;;5039890;28;20198;-58
2022/11/03 02:12:51;;;;;;;1.37;1.10;;;;;;;;;;5041158;28;20245;-59
2022/11/03 02:15:18;;;;;;;2.33;1.60;;;;;;;;;;5046412;28;20186;-60
2022/11/03 02:17:45;;;;;;;2.37;1.20;;;;;;;;;;5045875;28;20708;-60
2022/11/03 02:20:18;;;;;;;1.67;1.30;;;;;;;;;;5049161;28;20217;-57
2022/11/03 02:23:01;;;;;;;1.83;1.40;;;;;;;;;;5041629;28;20189;-56
2022/11/03 02:25:43;;;;;;;1.93;1.30;;;;;;;;;;5037269;28;20210;-57
2022/11/03 02:28:09;;;;;;;2.07;1.30;;;;;;;;;;5043957;28;20201;-58
2022/11/03 02:30:43;;;;;;;2.40;1.60;;;;;;;;;;5052404;28;20674;-60
2022/11/03 02:33:46;;;;;;;1.70;1.33;;;;;;;;;;5045624;28;20182;-58
2022/11/03 02:36:17;;;;;;;2.70;1.40;;;;;;;;;;5043141;28;20562;-59
2022/11/03 02:39:04;;;;;;;1.83;1.50;;;;;;;;;;5046629;28;20183;-58
2022/11/03 02:41:33;;;;;;;1.77;1.20;;;;;;;;;;5042364;28;20182;-58
2022/11/03 02:43:59;;;;;;;1.60;1.33;;;;;;;;;;5043551;28;20210;-58
2022/11/03 02:46:25;;;;;;;2.30;1.40;;;;;;;;;;5040192;28;20266;-58
2022/11/03 02:48:51;;;;;;;2.53;1.60;;;;;;;;;;5045068;28;20772;-57
2022/11/03 02:51:16;;;;;;;2.10;1.40;;;;;;;;;;5041885;28;20174;-56
2022/11/03 02:53:47;;;;;;;2.17;1.27;;;;;;;;;;5044780;28;20190;-59
2022/11/03 02:56:17;;;;;;;1.50;1.20;;;;;;;;;;5043187;28;20183;-59
2022/11/03 02:59:02;;;;;;;1.80;1.20;;;;;;;;;;5041479;28;20187;-59
2022/11/03 03:01:33;;;;;;;1.63;1.20;;;;;;;;;;5041827;28;20191;-58
2022/11/03 03:04:00;;;;;;;2.53;1.37;;;;;;;;;;5042047;28;20682;-59
2022/11/03 03:06:38;;;;;;;2.20;1.30;;;;;;;;;;5056336;28;20550;-58
2022/11/03 03:09:27;;;;;;;2.17;1.43;;;;;;;;;;5044717;28;20551;-60
2022/11/03 03:11:54;;;;;;;1.50;1.10;;;;;;;;;;5042726;28;20183;-60
2022/11/03 03:14:24;;;;;;;1.90;1.57;;;;;;;;;;5041245;28;20198;-58
2022/11/03 03:16:59;;;;;;;1.30;1.10;;;;;;;;;;5040198;28;20642;-59
2022/11/03 03:19:37;;;;;;;1.70;1.33;;;;;;;;;;5043725;28;20259;-59
2022/11/03 03:22:20;;;;;;;1.30;1.17;;;;;;;;;;5044682;28;20190;-59
2022/11/03 03:24:57;;;;;;;1.47;1.20;;;;;;;;;;5046579;28;20203;-59
2022/11/03 03:27:24;;;;;;;1.67;1.17;;;;;;;;;;5038017;28;20189;-59
2022/11/03 03:29:53;;;;;;;1.27;1.17;;;;;;;;;;5038143;28;20221;-59
2022/11/03 03:32:21;;;;;;;1.77;1.20;;;;;;;;;;5044210;28;20615;-59
2022/11/03 03:34:48;;;;;;;2.13;1.40;;;;;;;;;;5049005;28;20270;-59
2022/11/03 03:37:15;;;;;;;1.30;1.10;;;;;;;;;;5043449;28;20186;-60
2022/11/03 03:39:45;;;;;;;2.70;1.60;;;;;;;;;;5047334;28;20206;-57
2022/11/03 03:42:11;;;;;;;1.73;1.23;;;;;;;;;;5049184;28;20186;-59
2022/11/03 03:44:37;;;;;;;1.73;1.30;;;;;;;;;;5043077;28;20202;-59
2022/11/03 03:47:06;;;;;;;2.20;1.50;;;;;;;;;;5041893;28;20240;-59
2022/11/03 03:49:31;;;;;;;2.03;1.23;;;;;;;;;;5044364;28;20221;-58
2022/11/03 03:51:57;;;;;;;1.33;1.10;;;;;;;;;;5049838;28;20175;-59
2022/11/03 03:54:22;;;;;;;1.53;1.30;;;;;;;;;;5050187;28;20557;-57
2022/11/03 03:56:57;;;;;;;1.57;1.40;;;;;;;;;;5047410;28;20277;-59
2022/11/03 03:59:23;;;;;;;1.90;1.20;;;;;;;;;;5038988;28;20214;-59
2022/11/03 04:01:48;;;;;;;1.87;1.30;;;;;;;;;;5048495;28;20271;-56
2022/11/03 04:04:13;;;;;;;1.60;1.10;;;;;;;;;;5049284;28;20207;-59
2022/11/03 04:06:38;;;;;;;1.70;1.23;;;;;;;;;;5045447;28;20193;-57
2022/11/03 04:09:04;;;;;;;2.13;1.50;;;;;;;;;;5044910;28;20203;-59
2022/11/03 04:22:29;;;;;;;1.93;1.30;;;;;;;;;;5047229;28;20197;-59
2022/11/03 04:24:55;;;;;;;1.87;1.33;;;;;;;;;;5050369;28;20260;-60
2022/11/03 04:27:32;;;;;;;1.93;1.30;;;;;;;;;;5049220;28;20179;-59
2022/11/03 04:30:18;;;;;;;1.40;1.20;;;;;;;;;;5043393;28;20754;-60
2022/11/03 04:32:45;;;;;;;1.87;1.20;;;;;;;;;;5041468;28;20183;-57
2022/11/03 04:35:16;;;;;;;1.90;1.30;;;;;;;;;;5043026;28;20175;-56
2022/11/03 04:37:41;;;;;;;1.50;1.23;;;;;;;;;;5047733;28;20189;-60
2022/11/03 04:40:13;;;;;;;1.30;1.20;;;;;;;;;;5050063;28;20293;-58
2022/11/03 04:42:38;;;;;;;2.03;1.40;;;;;;;;;;5045229;28;20190;-57
2022/11/03 04:45:13;;;;;;;1.37;1.10;;;;;;;;;;5041109;28;20226;-58
2022/11/03 04:47:38;;;;;;;1.27;1.13;;;;;;;;;;5041839;28;20212;-57
2022/11/03 04:50:06;;;;;;;2.00;1.40;;;;;;;;;;5046061;28;20223;-58
2022/11/03 04:52:31;;;;;;;2.70;1.20;;;;;;;;;;5047793;28;20179;-59
2022/11/03 04:54:56;;;;;;;1.20;1.10;;;;;;;;;;5044040;28;20187;-59
2022/11/03 04:57:21;;;;;;;1.13;1.00;;;;;;;;;;5049175;28;20244;-58
2022/11/03 04:59:49;;;;;;;1.90;1.20;;;;;;;;;;5048418;28;20280;-59
2022/11/03 05:02:16;;;;;;;1.93;1.27;;;;;;;;;;5042914;28;20190;-59
2022/11/03 05:04:42;;;;;;;1.33;1.13;;;;;;;;;;5042778;28;20238;-56
2022/11/03 05:07:33;;;;;;;2.00;1.30;;;;;;;;;;5038412;28;20257;-58
2022/11/03 05:09:59;;;;;;;1.97;1.30;;;;;;;;;;5043235;28;20191;-56
2022/11/03 05:12:25;;;;;;;1.53;1.20;;;;;;;;;;5036517;28;20585;-58
2022/11/03 05:14:50;;;;;;;1.13;1.00;;;;;;;;;;5038686;28;20184;-57
2022/11/03 05:17:23;;;;;;;1.50;1.20;;;;;;;;;;5047475;28;20206;-58
2022/11/03 05:19:57;;;;;;;2.30;1.20;;;;;;;;;;5039407;28;20674;-54
2022/11/03 05:22:24;;;;;;;1.63;1.17;;;;;;;;;;5041980;28;20238;-58
2022/11/03 05:24:56;;;;;;;2.10;1.27;;;;;;;;;;5046939;28;20203;-57
2022/11/03 05:27:21;;;;;;;1.40;1.07;;;;;;;;;;5045170;28;20530;-57
2022/11/03 05:29:47;;;;;;;2.00;1.43;;;;;;;;;;5042613;28;20685;-57
2022/11/03 05:32:21;;;;;;;1.70;1.10;;;;;;;;;;5042395;28;20650;-58
2022/11/03 05:34:48;;;;;;;1.50;1.20;;;;;;;;;;5037830;28;20184;-55
2022/11/03 05:37:27;;;;;;;1.80;1.40;;;;;;;;;;5045863;28;20182;-58
2022/11/03 05:39:59;;;;;;;2.37;1.20;;;;;;;;;;5042004;28;20210;-56
2022/11/03 05:42:34;;;;;;;1.67;1.23;;;;;;;;;;5042402;28;20769;-55
2022/11/03 05:45:02;;;;;;;2.03;1.30;;;;;;;;;;5043228;28;20236;-57
2022/11/03 05:47:34;;;;;;;1.37;1.03;;;;;;;;;;5044754;28;20182;-57
2022/11/03 05:50:10;;;;;;;1.27;1.10;;;;;;;;;;5041834;28;20707;-58
2022/11/03 05:52:36;;;;;;;1.67;1.30;;;;;;;;;;5044690;28;20182;-59
2022/11/03 05:55:02;;;;;;;1.47;1.10;;;;;;;;;;5046704;28;20180;-57
2022/11/03 05:57:28;;;;;;;1.33;1.00;;;;;;;;;;5047651;28;20185;-58
2022/11/03 05:59:54;;;;;;;1.83;1.30;;;;;;;;;;5047114;28;20199;-58
2022/11/03 06:02:36;;;;;;;1.43;1.13;;;;;;;;;;5045590;28;20266;-56
2022/11/03 06:05:17;;;;;;;1.37;1.00;;;;;;;;;;5042818;28;20622;-57
2022/11/03 06:07:42;;;;;;;1.30;1.10;;;;;;;;;;5044206;28;20198;-57
2022/11/03 06:10:28;;;;;;;1.47;1.20;;;;;;;;;;5046824;28;20198;-57
2022/11/03 06:13:03;;;;;;;1.80;1.10;;;;;;;;;;5043923;28;20228;-55
2022/11/03 06:15:33;;;;;;;2.03;1.10;;;;;;;;;;5038221;28;20269;-57
2022/11/03 06:18:00;;;;;;;1.47;1.10;;;;;;;;;;5037191;28;20179;-56
2022/11/03 06:20:25;;;;;;;1.13;1.03;;;;;;;;;;5042574;28;20241;-56
2022/11/03 06:22:54;;;;;;;2.03;1.17;;;;;;;;;;5042655;28;20187;-56
2022/11/03 06:25:45;;;;;;;1.73;1.27;;;;;;;;;;5044567;28;20198;-56
2022/11/03 06:28:18;;;;;;;1.30;1.17;;;;;;;;;;5045688;28;20290;-56
2022/11/03 06:30:44;;;;;;;1.97;1.00;;;;;;;;;;5046517;28;20201;-56
2022/11/03 06:33:15;;;;;;;2.67;1.10;;;;;;;;;;5046957;28;20185;-57
2022/11/03 06:35:41;;;;;;;1.60;1.20;;;;;;;;;;5042142;28;20207;-59
2022/11/03 06:38:20;;;;;;;1.33;1.20;;;;;;;;;;5045059;28;20219;-58
2022/11/03 06:40:48;;;;;;;2.80;1.47;;;;;;;;;;5039536;28;20198;-55
2022/11/03 06:43:23;;;;;;;1.27;1.13;;;;;;;;;;5046789;28;20258;-57
2022/11/03 06:45:58;;;;;;;1.40;1.30;;;;;;;;;;5040257;28;20199;-57
2022/11/03 06:48:26;;;;;;;1.83;1.30;;;;;;;;;;5037023;28;20181;-56
2022/11/03 06:50:52;;;;;;;1.63;1.20;;;;;;;;;;5044024;28;20233;-57
2022/11/03 06:53:30;;;;;;;1.20;1.00;;;;;;;;;;5044082;28;20199;-58
2022/11/03 06:55:55;;;;;;;1.17;0.93;;;;;;;;;;5046649;28;20527;-58
2022/11/03 06:58:31;;;;;;;1.20;1.07;;;;;;;;;;5034859;28;20203;-56
2022/11/03 07:00:59;;;;;;;1.80;1.23;;;;;;;;;;5047830;28;21277;-54
2022/11/03 07:03:29;;;;;;;1.47;1.10;;;;;;;;;;5047045;28;20185;-58
2022/11/03 07:05:59;;;;;;;1.53;1.10;;;;;;;;;;5042785;28;20249;-58
2022/11/03 07:08:37;;;;;;;1.77;1.17;;;;;;;;;;5042068;28;20210;-58
2022/11/03 07:11:11;;;;;;;1.33;1.07;;;;;;;;;;5046950;28;20174;-56
2022/11/03 07:13:36;;;;;;;1.60;1.10;;;;;;;;;;5044973;28;20221;-59
2022/11/03 07:16:02;;;;;;;2.07;1.17;;;;;;;;;;5043583;28;20171;-57
2022/11/03 07:18:34;;;;;;;1.60;1.13;;;;;;;;;;5036938;28;20645;-58
2022/11/03 07:21:20;;;;;;;1.03;0.80;;;;;;;;;;5041743;28;20453;-55
2022/11/03 07:23:45;;;;;;;1.80;1.20;;;;;;;;;;5037565;28;20179;-58
2022/11/03 07:26:11;;;;;;;1.20;1.00;;;;;;;;;;5047441;28;20464;-56
2022/11/03 07:28:37;;;;;;;1.20;1.10;;;;;;;;;;5042802;28;20179;-58
2022/11/03 07:31:12;;;;;;;1.90;1.25;;;;;;;;;;5042027;28;20544;-58
2022/11/03 07:33:38;;;;;;;1.43;1.03;;;;;;;;;;5038529;28;20273;-57
2022/11/03 07:36:05;;;;;;;1.47;1.00;;;;;;;;;;5039156;28;20644;-58
2022/11/03 07:38:31;;;;;;;1.80;1.20;;;;;;;;;;5047262;28;20182;-58
2022/11/03 07:40:58;;;;;;;1.60;1.10;;;;;;;;;;5042263;28;20175;-58
2022/11/03 07:43:27;;;;;;;1.20;1.07;;;;;;;;;;5038577;28;20175;-58
2022/11/03 07:45:58;;;;;;;1.85;1.17;;;;;;;;;;5043053;28;20210;-59
2022/11/03 07:48:26;;;;;;;1.30;1.17;;;;;;;;;;5043406;28;20258;-58
2022/11/03 07:50:59;;;;;;;1.65;1.25;;;;;;;;;;5046270;28;20221;-58
2022/11/03 07:53:27;;;;;;;1.70;1.10;;;;;;;;;;5043659;28;20274;-58
2022/11/03 07:55:54;;;;;;;1.53;1.10;;;;;;;;;;5046536;28;20187;-59
2022/11/03 07:58:33;;;;;;;1.35;1.10;;;;;;;;;;5042679;28;20186;-58
2022/11/03 08:01:00;;;;;;;1.98;1.00;;;;;;;;;;5041771;28;20606;-58
2022/11/03 08:03:45;;;;;;;1.27;1.05;;;;;;;;;;5040255;28;20226;-58
2022/11/03 08:06:10;;;;;;;1.67;1.05;;;;;;;;;;5040609;28;20207;-57
2022/11/03 08:08:36;;;;;;;1.77;1.20;;;;;;;;;;5040401;28;20175;-57
2022/11/03 08:11:01;;;;;;;2.13;1.30;;;;;;;;;;5043669;28;20274;-57
2022/11/03 08:13:26;;;;;;;1.85;1.30;;;;;;;;;;5041284;28;20300;-59
2022/11/03 08:15:51;;;;;;;2.00;1.50;;;;;;;;;;5032933;28;20211;-60
2022/11/03 08:18:17;;;;;;;3.03;1.65;;;;;;;;;;5041882;28;20215;-61
2022/11/03 08:20:42;;;;;;;2.35;1.60;;;;;;;;;;5045659;28;20285;-61
2022/11/03 08:23:07;;;;;;;3.53;1.95;;;;;;;;;;5049786;28;20265;-61
2022/11/03 08:25:32;;;;;;;4.32;1.85;;;;;;;;;;5042056;28;20203;-61
2022/11/03 08:27:59;;;;;;;4.18;1.90;;;;;;;;;;5049267;28;20669;-63
2022/11/03 08:30:24;;;;;;;4.78;2.00;;;;;;;;;;5045521;28;20207;-61
2022/11/03 08:32:49;;;;;;;4.18;2.10;;;;;;;;;;5044657;28;20176;-61
2022/11/03 08:35:15;;;;;;;3.90;2.17;;;;;;;;;;5046685;28;20167;-60
2022/11/03 08:37:41;;;;;;;4.35;2.03;;;;;;;;;;5030389;28;20176;-60
2022/11/03 08:40:07;;;;;;;3.53;1.85;;;;;;;;;;5040165;28;20276;-60
2022/11/03 08:42:32;;;;;;;5.22;2.20;;;;;;;;;;5044200;28;20396;-61
2022/11/03 08:44:58;;;;;;;4.57;2.33;;;;;;;;;;5048721;28;20297;-62
2022/11/03 08:47:23;;;;;;;3.35;2.17;;;;;;;;;;5048601;28;20175;-60
2022/11/03 08:49:48;;;;;;;3.72;2.40;;;;;;;;;;5047821;28;20217;-61
2022/11/03 08:52:15;;;;;;;2.70;2.05;;;;;;;;;;5038078;28;20671;-60
2022/11/03 08:54:40;;;;;;;3.63;2.13;;;;;;;;;;5043327;28;20187;-61
2022/11/03 08:57:05;;;;;;;3.85;2.47;;;;;;;;;;5045160;28;20247;-58
2022/11/03 08:59:30;;;;;;;2.78;1.80;;;;;;;;;;5044211;28;20194;-63
2022/11/03 09:01:56;;;;;;;4.22;2.35;;;;;;;;;;5044080;28;20174;-61
2022/11/03 09:04:21;;;;;;;2.88;2.20;;;;;;;;;;5043943;28;20202;-61
2022/11/03 09:06:47;;;;;;;3.30;2.15;;;;;;;;;;5043010;28;20559;-60
2022/11/03 09:09:12;;;;;;;2.88;2.10;;;;;;;;;;5045879;28;21068;-60
2022/11/03 09:11:37;;;;;;;4.18;2.30;;;;;;;;;;5042529;28;20287;-63
2022/11/03 09:14:02;;;;;;;3.20;2.10;;;;;;;;;;5045851;28;20180;-60
2022/11/03 09:16:28;;;;;;;2.78;2.00;;;;;;;;;;5044937;28;20175;-61
2022/11/03 09:18:53;;;;;;;3.30;1.90;;;;;;;;;;5044743;28;20665;-60
2022/11/03 09:21:18;;;;;;;2.80;2.00;;;;;;;;;;5039661;28;20700;-60
2022/11/03 09:23:43;;;;;;;3.17;2.10;;;;;;;;;;5039914;28;20191;-60
2022/11/03 09:26:09;;;;;;;2.35;1.80;;;;;;;;;;5043411;28;20578;-58
2022/11/03 09:28:34;;;;;;;4.05;2.13;;;;;;;;;;5047926;28;20183;-59
2022/11/03 09:30:59;;;;;;;3.75;1.95;;;;;;;;;;5046196;28;20281;-59
2022/11/03 09:33:24;;;;;;;3.88;2.13;;;;;;;;;;5047061;28;20186;-59
2022/11/03 09:35:49;;;;;;;2.97;1.92;;;;;;;;;;5045487;28;20302;-58
2022/11/03 09:38:15;;;;;;;2.75;1.95;;;;;;;;;;5044351;28;20264;-59
2022/11/03 09:40:40;;;;;;;3.28;2.15;;;;;;;;;;5039082;28;20272;-58
2022/11/03 09:43:06;;;;;;;4.47;2.35;;;;;;;;;;5037719;28;20197;-58
2022/11/03 09:45:31;;;;;;;2.60;1.80;;;;;;;;;;5044864;28;20289;-60
2022/11/03 09:47:56;;;;;;;2.47;1.95;;;;;;;;;;5046878;28;20171;-59
2022/11/03 09:50:21;;;;;;;2.92;1.95;;;;;;;;;;5043227;28;20617;-59
2022/11/03 09:52:47;;;;;;;3.95;2.00;;;;;;;;;;5044810;28;20555;-58
2022/11/03 09:55:19;;;;;;;3.47;2.40;;;;;;;;;;5048192;28;20171;-60
2022/11/03 09:57:44;;;;;;;3.33;2.33;;;;;;;;;;5034480;28;20172;-60
2022/11/03 10:00:17;;;;;;;3.42;2.20;;;;;;;;;;5043827;28;20217;-60
2022/11/03 10:02:42;;;;;;;3.05;1.90;;;;;;;;;;5041750;28;20183;-57
2022/11/03 10:05:12;;;;;;;3.35;1.90;;;;;;;;;;5043919;28;20207;-58
2022/11/03 10:07:37;;;;;;;4.20;2.10;;;;;;;;;;5043569;28;20586;-59
2022/11/03 10:10:03;;;;;;;2.75;2.17;;;;;;;;;;5039607;28;20234;-59
2022/11/03 10:12:31;;;;;;;2.63;1.80;;;;;;;;;;5031065;28;20182;-59
2022/11/03 10:14:56;;;;;;;5.45;1.98;;;;;;;;;;5040645;28;20561;-59
2022/11/03 10:17:26;;;;;;;3.20;2.00;;;;;;;;;;5037833;28;20194;-60
2022/11/03 10:19:52;;;;;;;2.55;1.90;;;;;;;;;;5041670;28;20237;-59
2022/11/03 10:22:19;;;;;;;6.05;2.20;;;;;;;;;;5041947;28;20206;-59
2022/11/03 10:24:44;;;;;;;3.75;2.00;;;;;;;;;;5039135;28;20194;-59
2022/11/03 10:27:24;;;;;;;2.65;1.92;;;;;;;;;;5038295;28;20178;-59
2022/11/03 10:30:10;;;;;;;3.97;2.50;;;;;;;;;;5035497;28;20273;-60
2022/11/03 10:32:36;;;;;;;4.85;2.90;;;;;;;;;;5041070;28;20225;-60
2022/11/03 10:35:30;;;;;;;4.18;2.40;;;;;;;;;;5034991;28;20171;-58
2022/11/03 10:37:58;;;;;;;3.75;2.47;;;;;;;;;;5035102;28;20194;-61
2022/11/03 10:40:35;;;;;;;3.33;2.00;;;;;;;;;;5039144;28;20237;-60
2022/11/03 10:43:00;;;;;;;2.95;2.10;;;;;;;;;;5040356;28;20191;-61
2022/11/03 10:45:25;;;;;;;3.50;2.15;;;;;;;;;;5036065;28;20215;-57
2022/11/03 10:48:04;;;;;;;3.50;2.35;;;;;;;;;;5042779;28;20206;-59
2022/11/03 10:50:29;;;;;;;4.82;2.25;;;;;;;;;;5042534;28;20210;-59
2022/11/03 10:52:54;;;;;;;3.80;2.40;;;;;;;;;;5042975;28;20179;-60
2022/11/03 10:55:21;;;;;;;4.55;2.72;;;;;;;;;;5042893;28;20175;-58
2022/11/03 10:57:48;;;;;;;6.00;2.83;;;;;;;;;;5043780;28;20191;-60
2022/11/03 11:00:17;;;;;;;3.80;2.50;;;;;;;;;;5045236;28;20195;-60
2022/11/03 11:02:45;;;;;;;3.28;2.65;;;;;;;;;;5046284;28;20364;-60
2022/11/03 11:05:20;;;;;;;4.38;2.95;;;;;;;;;;5040391;28;21527;-59
2022/11/03 11:07:47;;;;;;;3.78;2.50;;;;;;;;;;5038812;28;20226;-59
2022/11/03 11:10:20;;;;;;;3.63;2.38;;;;;;;;;;5046805;28;20288;-58
2022/11/03 11:13:08;;;;;;;3.38;2.67;;;;;;;;;;5042530;28;20183;-59
2022/11/03 11:16:03;;;;;;;4.95;2.95;;;;;;;;;;5020603;28;20186;-60
2022/11/03 11:18:28;;;;;;;3.50;2.58;;;;;;;;;;5045787;28;20187;-60
2022/11/03 11:21:16;;;;;;;4.93;2.85;;;;;;;;;;5037363;28;20205;-59
2022/11/03 11:23:43;;;;;;;3.45;2.20;;;;;;;;;;5045581;28;20179;-59
2022/11/03 11:26:08;;;;;;;3.28;2.25;;;;;;;;;;5045424;28;20679;-60
2022/11/03 11:28:37;;;;;;;4.65;2.90;;;;;;;;;;5043875;28;20187;-59
2022/11/03 11:31:21;;;;;;;3.67;2.10;;;;;;;;;;5038195;28;20181;-58
2022/11/03 11:33:46;;;;;;;4.28;2.35;;;;;;;;;;5044533;28;20535;-58
2022/11/03 11:36:22;;;;;;;3.67;2.20;;;;;;;;;;5043793;28;20261;-57
2022/11/03 11:38:48;;;;;;;3.60;2.40;;;;;;;;;;5044082;28;20179;-59
2022/11/03 11:41:13;;;;;;;3.40;2.30;;;;;;;;;;5041884;28;20182;-59
2022/11/03 11:43:38;;;;;;;3.90;2.38;;;;;;;;;;5045949;28;20212;-58
2022/11/03 11:46:22;;;;;;;2.58;1.98;;;;;;;;;;5037557;28;20328;-59
2022/11/03 11:49:03;;;;;;;3.85;2.40;;;;;;;;;;5038946;28;20178;-56
2022/11/03 11:51:33;;;;;;;3.80;2.20;;;;;;;;;;5045178;28;20390;-60
2022/11/03 11:53:58;;;;;;;3.60;2.20;;;;;;;;;;5040764;28;20179;-57
2022/11/03 11:56:23;;;;;;;3.90;2.35;;;;;;;;;;5043594;28;20662;-57
2022/11/03 11:58:55;;;;;;;3.58;2.60;;;;;;;;;;5039921;28;20666;-58
2022/11/03 12:01:31;;;;;;;4.53;2.38;;;;;;;;;;5035330;28;20179;-59
2022/11/03 12:03:59;;;;;;;3.38;2.08;;;;;;;;;;5043781;28;20452;-59
2022/11/03 12:06:38;;;;;;;3.00;2.08;;;;;;;;;;5041931;28;20271;-60
2022/11/03 12:09:13;;;;;;;2.72;1.98;;;;;;;;;;5037752;28;20191;-58
2022/11/03 12:11:50;;;;;;;3.55;2.20;;;;;;;;;;5039417;28;20561;-60
2022/11/03 12:14:31;;;;;;;2.53;2.20;;;;;;;;;;5037714;28;20171;-57
2022/11/03 12:17:18;;;;;;;2.17;1.98;;;;;;;;;;5046028;28;20288;-57
2022/11/03 12:19:47;;;;;;;2.45;2.10;;;;;;;;;;5047352;28;20233;-59
2022/11/03 12:22:28;;;;;;;2.20;1.75;;;;;;;;;;5052184;28;20178;-58
2022/11/03 12:25:05;;;;;;;2.55;2.10;;;;;;;;;;5049458;28;20287;-59
2022/11/03 12:27:30;;;;;;;3.42;2.10;;;;;;;;;;5043213;28;20181;-59
2022/11/03 12:29:58;;;;;;;3.00;2.05;;;;;;;;;;5046780;28;20578;-60
2022/11/03 12:32:24;;;;;;;2.77;2.00;;;;;;;;;;5047369;28;20178;-57
2022/11/03 12:34:49;;;;;;;2.47;2.23;;;;;;;;;;5042316;28;20179;-59
2022/11/03 12:37:14;;;;;;;3.90;2.20;;;;;;;;;;5048195;28;20183;-61
2022/11/03 12:39:39;;;;;;;2.77;2.10;;;;;;;;;;5047455;28;20221;-56
2022/11/03 12:42:05;;;;;;;2.43;2.00;;;;;;;;;;5046699;28;20552;-60
2022/11/03 12:44:31;;;;;;;2.22;1.80;;;;;;;;;;5046601;28;20230;-60
2022/11/03 12:46:56;;;;;;;2.73;1.90;;;;;;;;;;5046437;28;21438;-60
2022/11/03 12:49:22;;;;;;;2.60;1.93;;;;;;;;;;5043260;28;20293;-59
2022/11/03 12:51:47;;;;;;;3.40;2.00;;;;;;;;;;5043634;28;20221;-59
2022/11/03 12:54:12;;;;;;;2.33;2.00;;;;;;;;;;5045197;28;20183;-59
2022/11/03 12:56:37;;;;;;;3.37;2.07;;;;;;;;;;5037320;28;20666;-60
2022/11/03 12:59:02;;;;;;;3.33;2.25;;;;;;;;;;5036851;28;20698;-60
2022/11/03 13:01:28;;;;;;;2.23;2.00;;;;;;;;;;5040007;28;20643;-57
2022/11/03 13:03:53;;;;;;;2.60;1.93;;;;;;;;;;5040008;28;20702;-58
2022/11/03 13:06:18;;;;;;;3.03;1.80;;;;;;;;;;5036471;28;20200;-59
2022/11/03 13:08:44;;;;;;;2.40;2.17;;;;;;;;;;5036658;28;20191;-61
2022/11/03 13:13:54;;;;;;;3.03;1.80;;;;;;;;;;5041172;28;20572;-61
2022/11/03 13:16:20;;;;;;;2.10;1.83;;;;;;;;;;5049030;28;20643;-58
2022/11/03 13:18:45;;;;;;;3.80;2.00;;;;;;;;;;5046945;28;20197;-60
2022/11/03 13:21:12;;;;;;;2.97;1.90;;;;;;;;;;5046894;28;20198;-61
2022/11/03 13:23:37;;;;;;;3.13;1.70;;;;;;;;;;5046374;28;20199;-61
2022/11/03 13:26:02;;;;;;;2.37;1.93;;;;;;;;;;5044437;28;20214;-57
2022/11/03 13:28:28;;;;;;;2.20;2.00;;;;;;;;;;5046312;28;20174;-59
2022/11/03 13:30:53;;;;;;;3.00;2.17;;;;;;;;;;5041290;28;20230;-60
2022/11/03 13:33:18;;;;;;;2.60;1.87;;;;;;;;;;5039932;28;20298;-60
2022/11/03 13:35:44;;;;;;;3.97;2.10;;;;;;;;;;5046419;28;20282;-60
2022/11/03 13:38:09;;;;;;;2.40;1.90;;;;;;;;;;5048175;28;20175;-60
2022/11/03 13:40:35;;;;;;;2.07;1.87;;;;;;;;;;5046038;28;20674;-60
2022/11/03 13:43:00;;;;;;;2.53;1.80;;;;;;;;;;5039091;28;20554;-59
2022/11/03 13:45:25;;;;;;;2.33;1.80;;;;;;;;;;5038159;28;20730;-58
2022/11/03 13:47:50;;;;;;;2.30;1.80;;;;;;;;;;5036849;28;20183;-58
2022/11/03 13:50:16;;;;;;;2.43;1.90;;;;;;;;;;5036810;28;20249;-61
2022/11/03 13:52:41;;;;;;;2.23;1.90;;;;;;;;;;5034160;28;20186;-62
2022/11/03 13:55:06;;;;;;;2.43;1.80;;;;;;;;;;5034344;28;20654;-61
2022/11/03 13:57:31;;;;;;;2.47;1.80;;;;;;;;;;5033768;28;20183;-59
2022/11/03 13:59:57;;;;;;;2.90;1.70;;;;;;;;;;5031802;28;20214;-61
2022/11/03 14:02:22;;;;;;;2.37;1.83;;;;;;;;;;5036378;28;20182;-60
2022/11/03 14:04:47;;;;;;;3.07;2.00;;;;;;;;;;5036771;28;20222;-61
2022/11/03 14:07:13;;;;;;;2.70;1.80;;;;;;;;;;5035293;28;20325;-59
2022/11/03 14:09:38;;;;;;;2.77;1.87;;;;;;;;;;5037493;28;20281;-61
2022/11/03 14:14:47;;;;;;;2.47;1.80;;;;;;;;;;5032304;28;20194;-59
2022/11/03 14:17:12;;;;;;;2.10;1.80;;;;;;;;;;5039293;28;20187;-60
2022/11/03 14:19:37;;;;;;;1.93;1.73;;;;;;;;;;5040550;28;20199;-61
2022/11/03 14:22:03;;;;;;;2.07;1.87;;;;;;;;;;5030959;28;20185;-59
2022/11/03 14:24:28;;;;;;;1.93;1.63;;;;;;;;;;5037357;28;20501;-60
2022/11/03 14:26:53;;;;;;;2.50;1.80;;;;;;;;;;5033203;28;20171;-60
2022/11/03 14:29:18;;;;;;;2.53;2.00;;;;;;;;;;5031571;28;20218;-60
2022/11/03 14:31:44;;;;;;;2.60;1.90;;;;;;;;;;5034549;28;20176;-60
2022/11/03 14:34:09;;;;;;;2.67;1.80;;;;;;;;;;5034482;28;20180;-60
2022/11/03 14:36:34;;;;;;;1.83;1.73;;;;;;;;;;5036583;28;20181;-60
2022/11/03 14:39:00;;;;;;;2.10;1.70;;;;;;;;;;5032216;28;20263;-59
2022/11/03 14:44:09;;;;;;;2.93;1.90;;;;;;;;;;5039605;28;20277;-60
2022/11/03 14:46:34;;;;;;;2.10;1.60;;;;;;;;;;5033885;28;20258;-61
2022/11/03 14:49:00;;;;;;;2.53;2.03;;;;;;;;;;5029654;28;20211;-60
2022/11/03 14:51:26;;;;;;;2.90;1.90;;;;;;;;;;5035689;28;20202;-60
2022/11/03 14:53:52;;;;;;;2.00;1.60;;;;;;;;;;5033839;28;20171;-61
2022/11/03 14:56:17;;;;;;;1.70;1.60;;;;;;;;;;5036445;28;20171;-58
2022/11/03 14:58:42;;;;;;;2.50;1.97;;;;;;;;;;5032045;28;20229;-61
2022/11/03 15:01:08;;;;;;;2.23;1.87;;;;;;;;;;5034353;28;20175;-60
2022/11/03 15:03:34;;;;;;;2.70;1.80;;;;;;;;;;5033601;28;20180;-57
2022/11/03 15:05:59;;;;;;;3.87;1.80;;;;;;;;;;5032093;28;20206;-60
2022/11/03 15:08:24;;;;;;;1.60;1.50;;;;;;;;;;5031856;28;20262;-61
2022/11/03 15:10:50;;;;;;;2.37;1.83;;;;;;;;;;5032215;28;20260;-59
2022/11/03 15:13:15;;;;;;;2.23;1.80;;;;;;;;;;5035900;28;20588;-60
2022/11/03 15:15:41;;;;;;;3.57;1.90;;;;;;;;;;5046602;28;20265;-61
2022/11/03 15:18:09;;;;;;;3.00;1.80;;;;;;;;;;5034296;28;20592;-59